1923 NOT_NAMED (1923127N18118)


IBTrACS version v04r00. Visit IBTrACS website for data access.
Please direct all questions to the IBTrACS Q and A forum

Storm track - Intensity - Wind Radii - Intensity Data - Source Data - All data

Summary Information

Storm ID 1923127N18118
Start May 6 22Z
End May 8 22Z
ATCF IDs
Track status Best track data.

Storm track plot

Map of storm track

Intensity plots

No Intensity information for this storm


Radial wind information

No radial wind information for this storm


Position and Intensity Table

BASIN ISO_TIME_________ NATURE LAT LON
degrees north degrees east
WP 1923-05-06 22:00:00 NR 18.40 117.80
WP 1923-05-07 00:00:00 NR 18.61 118.27
WP 03:00:00 NR 18.92 118.95
WP 06:00:00 NR 19.22 119.61
WP 09:00:00 NR 19.51 120.21
WP 10:00:00 NR 19.60 120.40
WP 12:00:00 NR 19.78 120.75
WP 15:00:00 NR 20.03 121.25
WP 18:00:00 NR 20.27 121.76
WP 21:00:00 NR 20.52 122.37
WP 22:00:00 NR 20.60 122.60
WP 1923-05-08 00:00:00 NR 20.76 123.15
WP 03:00:00 NR 20.99 124.06
WP 06:00:00 NR 21.24 125.06
WP 09:00:00 NR 21.50 126.07
WP 10:00:00 NR 21.60 126.40
WP 12:00:00 NR 21.81 127.05
WP 15:00:00 NR 22.14 127.99
WP 18:00:00 NR 22.50 128.90
WP 21:00:00 NR 22.88 129.80
WP 22:00:00 NR 23.00 130.10

Source Information

Agency Information
USA
TOKYO
CMA
HKO
NEWDELHI
REUNION
BOM
NADI
WELLINGTON
DS824
TD9636 cons_worldwide_trop_cyclone_18710101-19891231-003:Line=6836
TD9635
NEUMANN
MLC

All available IBTrACS Data

SEASON BASIN SUBBASIN ISO_TIME_________ NATURE LAT LON DIST2LAND LANDFALL IFLAG USA SSHS TD9636 LAT TD9636 LON TD9636 STAGE STORM SPEED STORM DIR
Year degrees north degrees east km km 1 degrees north degrees east kts degrees
1923 WP MM 1923-05-06 22:00:00 NR 18.40 117.80 279 238 __________O___ -1 18.40 117.80 2 15 64
1923 WP MM 1923-05-07 00:00:00 NR 18.61 118.27 238 177 __________P___ -1 18.61 118.27 2 15 64
1923 WP MM 03:00:00 NR 18.92 118.95 177 138 __________P___ -1 18.92 118.95 2 14 64
1923 WP MM 06:00:00 NR 19.22 119.61 138 115 __________P___ -1 19.22 119.61 2 13 64
1923 WP MM 09:00:00 NR 19.51 120.21 118 113 __________P___ -1 19.51 120.21 2 13 63
1923 WP MM 10:00:00 NR 19.60 120.40 119 116 __________O___ -1 19.60 120.40 2 11 62
1923 WP MM 12:00:00 NR 19.78 120.75 134 134 __________P___ -1 19.78 120.75 2 11 62
1923 WP MM 15:00:00 NR 20.03 121.25 159 162 __________P___ -1 20.03 121.25 2 11 62
1923 WP MM 18:00:00 NR 20.27 121.76 201 201 __________P___ -1 20.27 121.76 2 12 65
1923 WP MM 21:00:00 NR 20.52 122.37 220 220 __________P___ -1 20.52 122.37 2 13 67
1923 WP MM 22:00:00 NR 20.60 122.60 228 228 __________O___ -1 20.60 122.60 2 15 72
1923 WP MM 1923-05-08 00:00:00 NR 20.76 123.15 258 268 __________P___ -1 20.76 123.15 2 17 74
1923 WP MM 03:00:00 NR 20.99 124.06 346 346 __________P___ -1 20.99 124.06 2 18 75
1923 WP MM 06:00:00 NR 21.24 125.06 428 430 __________P___ -1 21.24 125.06 2 19 75
1923 WP MM 09:00:00 NR 21.50 126.07 515 515 __________P___ -1 21.50 126.07 2 20 74
1923 WP MM 10:00:00 NR 21.60 126.40 540 540 __________O___ -1 21.60 126.40 2 19 72
1923 WP MM 12:00:00 NR 21.81 127.05 593 603 __________P___ -1 21.81 127.05 2 19 70
1923 WP MM 15:00:00 NR 22.14 127.99 677 673 __________P___ -1 22.14 127.99 2 19 68
1923 WP MM 18:00:00 NR 22.50 128.90 747 757 __________P___ -1 22.50 128.90 2 18 66
1923 WP MM 21:00:00 NR 22.88 129.80 823 833 __________P___ -1 22.88 129.80 2 18 66
1923 WP MM 22:00:00 NR 23.00 130.10 850 __________O___ -1 23.00 130.10 7 18 66